sensor_id;sensor_type;location;lat;lon;timestamp;temperature;humidity
983;DHT22;480;48.124;11.578;2023-04-03T00:01:44;3.90;99.90
983;DHT22;480;48.124;11.578;2023-04-03T00:04:11;4.00;99.90
983;DHT22;480;48.124;11.578;2023-04-03T00:06:38;4.00;99.90
983;DHT22;480;48.124;11.578;2023-04-03T00:09:05;4.00;99.90
983;DHT22;480;48.124;11.578;2023-04-03T00:11:32;4.00;99.90
983;DHT22;480;48.124;11.578;2023-04-03T00:13:59;3.90;99.90
983;DHT22;480;48.124;11.578;2023-04-03T00:16:26;4.00;99.90
983;DHT22;480;48.124;11.578;2023-04-03T00:18:54;4.10;99.90
983;DHT22;480;48.124;11.578;2023-04-03T00:21:21;4.10;99.90
983;DHT22;480;48.124;11.578;2023-04-03T00:23:48;4.00;99.90
983;DHT22;480;48.124;11.578;2023-04-03T00:26:15;4.00;99.90
983;DHT22;480;48.124;11.578;2023-04-03T00:28:43;3.90;99.90
983;DHT22;480;48.124;11.578;2023-04-03T00:31:10;4.00;99.90
983;DHT22;480;48.124;11.578;2023-04-03T00:33:37;4.00;99.90
983;DHT22;480;48.124;11.578;2023-04-03T00:36:09;3.70;99.90
983;DHT22;480;48.124;11.578;2023-04-03T00:38:36;3.60;99.90
983;DHT22;480;48.124;11.578;2023-04-03T00:41:03;3.80;99.90
983;DHT22;480;48.124;11.578;2023-04-03T00:43:30;3.90;99.90
983;DHT22;480;48.124;11.578;2023-04-03T00:45:58;4.00;99.90
983;DHT22;480;48.124;11.578;2023-04-03T00:48:29;4.10;99.90
983;DHT22;480;48.124;11.578;2023-04-03T00:50:57;4.30;99.90
983;DHT22;480;48.124;11.578;2023-04-03T00:53:29;4.30;99.90
983;DHT22;480;48.124;11.578;2023-04-03T00:55:57;4.20;99.90
983;DHT22;480;48.124;11.578;2023-04-03T00:58:30;4.20;99.90
983;DHT22;480;48.124;11.578;2023-04-03T01:01:03;4.20;99.90
983;DHT22;480;48.124;11.578;2023-04-03T01:03:32;3.90;99.90
983;DHT22;480;48.124;11.578;2023-04-03T01:05:59;3.80;99.90
983;DHT22;480;48.124;11.578;2023-04-03T01:08:28;3.70;99.90
983;DHT22;480;48.124;11.578;2023-04-03T01:10:55;3.60;99.90
983;DHT22;480;48.124;11.578;2023-04-03T01:13:25;3.70;99.90
983;DHT22;480;48.124;11.578;2023-04-03T01:15:52;3.50;99.90
983;DHT22;480;48.124;11.578;2023-04-03T01:18:19;3.60;99.90
983;DHT22;480;48.124;11.578;2023-04-03T01:21:16;3.50;99.90
983;DHT22;480;48.124;11.578;2023-04-03T01:24:16;3.50;99.90
983;DHT22;480;48.124;11.578;2023-04-03T01:26:46;3.70;99.90
983;DHT22;480;48.124;11.578;2023-04-03T01:29:13;3.70;99.90
983;DHT22;480;48.124;11.578;2023-04-03T01:31:48;3.70;99.90
983;DHT22;480;48.124;11.578;2023-04-03T01:34:15;3.70;99.90
983;DHT22;480;48.124;11.578;2023-04-03T01:36:42;3.80;99.90
983;DHT22;480;48.124;11.578;2023-04-03T01:39:10;4.00;99.90
983;DHT22;480;48.124;11.578;2023-04-03T01:41:37;4.00;99.90
983;DHT22;480;48.124;11.578;2023-04-03T01:44:04;4.20;99.90
983;DHT22;480;48.124;11.578;2023-04-03T01:46:31;4.10;99.90
983;DHT22;480;48.124;11.578;2023-04-03T01:49:00;3.80;99.90
983;DHT22;480;48.124;11.578;2023-04-03T01:51:27;3.80;99.90
983;DHT22;480;48.124;11.578;2023-04-03T01:53:54;3.90;99.90
983;DHT22;480;48.124;11.578;2023-04-03T01:56:21;4.00;99.90
983;DHT22;480;48.124;11.578;2023-04-03T01:58:48;3.70;99.90
983;DHT22;480;48.124;11.578;2023-04-03T02:01:15;3.50;99.90
983;DHT22;480;48.124;11.578;2023-04-03T02:03:43;3.60;99.90
983;DHT22;480;48.124;11.578;2023-04-03T02:06:11;3.60;99.90
983;DHT22;480;48.124;11.578;2023-04-03T02:08:38;3.70;99.90
983;DHT22;480;48.124;11.578;2023-04-03T02:11:05;3.80;99.90
983;DHT22;480;48.124;11.578;2023-04-03T02:13:32;3.70;99.90
983;DHT22;480;48.124;11.578;2023-04-03T02:16:06;3.80;99.90
983;DHT22;480;48.124;11.578;2023-04-03T02:18:33;3.90;99.90
983;DHT22;480;48.124;11.578;2023-04-03T02:21:00;4.00;99.90
983;DHT22;480;48.124;11.578;2023-04-03T02:23:28;4.10;99.90
983;DHT22;480;48.124;11.578;2023-04-03T02:26:06;4.20;99.90
983;DHT22;480;48.124;11.578;2023-04-03T02:28:33;4.20;99.90
983;DHT22;480;48.124;11.578;2023-04-03T02:31:01;4.20;99.90
983;DHT22;480;48.124;11.578;2023-04-03T02:33:28;4.40;99.90
983;DHT22;480;48.124;11.578;2023-04-03T02:35:56;4.20;99.90
983;DHT22;480;48.124;11.578;2023-04-03T02:38:23;4.00;99.90
983;DHT22;480;48.124;11.578;2023-04-03T02:40:52;4.10;99.90
983;DHT22;480;48.124;11.578;2023-04-03T02:43:19;3.90;99.90
983;DHT22;480;48.124;11.578;2023-04-03T02:45:46;4.00;99.90
983;DHT22;480;48.124;11.578;2023-04-03T02:48:13;4.00;99.90
983;DHT22;480;48.124;11.578;2023-04-03T02:50:42;3.90;99.90
983;DHT22;480;48.124;11.578;2023-04-03T02:53:09;3.80;99.90
983;DHT22;480;48.124;11.578;2023-04-03T02:55:36;3.60;99.90
983;DHT22;480;48.124;11.578;2023-04-03T02:58:04;3.80;99.90
983;DHT22;480;48.124;11.578;2023-04-03T03:00:31;4.00;99.90
983;DHT22;480;48.124;11.578;2023-04-03T03:02:59;3.80;99.90
983;DHT22;480;48.124;11.578;2023-04-03T03:05:26;3.60;99.90
983;DHT22;480;48.124;11.578;2023-04-03T03:07:53;3.70;99.90
983;DHT22;480;48.124;11.578;2023-04-03T03:10:20;3.80;99.90
983;DHT22;480;48.124;11.578;2023-04-03T03:12:47;3.70;99.90
983;DHT22;480;48.124;11.578;2023-04-03T03:15:16;3.90;99.90
983;DHT22;480;48.124;11.578;2023-04-03T03:17:45;3.90;99.90
983;DHT22;480;48.124;11.578;2023-04-03T03:20:13;4.00;99.90
983;DHT22;480;48.124;11.578;2023-04-03T03:22:41;4.00;99.90
983;DHT22;480;48.124;11.578;2023-04-03T03:25:08;4.00;99.90
983;DHT22;480;48.124;11.578;2023-04-03T03:27:35;4.10;99.90
983;DHT22;480;48.124;11.578;2023-04-03T03:30:03;4.20;99.90
983;DHT22;480;48.124;11.578;2023-04-03T03:32:32;4.10;99.90
983;DHT22;480;48.124;11.578;2023-04-03T03:34:59;4.00;99.90
983;DHT22;480;48.124;11.578;2023-04-03T03:37:26;4.10;99.90
983;DHT22;480;48.124;11.578;2023-04-03T03:39:53;4.20;99.90
983;DHT22;480;48.124;11.578;2023-04-03T03:42:20;4.20;99.90
983;DHT22;480;48.124;11.578;2023-04-03T03:44:47;4.10;99.90
983;DHT22;480;48.124;11.578;2023-04-03T03:47:14;3.90;99.90
983;DHT22;480;48.124;11.578;2023-04-03T03:49:43;3.80;99.90
983;DHT22;480;48.124;11.578;2023-04-03T03:52:10;3.80;99.90
983;DHT22;480;48.124;11.578;2023-04-03T03:54:38;3.80;99.90
983;DHT22;480;48.124;11.578;2023-04-03T03:57:05;3.70;99.90
983;DHT22;480;48.124;11.578;2023-04-03T03:59:32;3.80;99.90
983;DHT22;480;48.124;11.578;2023-04-03T04:01:59;3.80;99.90
983;DHT22;480;48.124;11.578;2023-04-03T04:04:26;3.70;99.90
983;DHT22;480;48.124;11.578;2023-04-03T04:06:55;3.60;99.90
983;DHT22;480;48.124;11.578;2023-04-03T04:09:22;3.70;99.90
983;DHT22;480;48.124;11.578;2023-04-03T04:11:49;3.70;99.90
983;DHT22;480;48.124;11.578;2023-04-03T04:14:16;3.90;99.90
983;DHT22;480;48.124;11.578;2023-04-03T04:16:43;3.80;99.90
983;DHT22;480;48.124;11.578;2023-04-03T04:19:10;3.80;99.90
983;DHT22;480;48.124;11.578;2023-04-03T04:21:37;3.80;99.90
983;DHT22;480;48.124;11.578;2023-04-03T04:24:06;3.80;99.90
983;DHT22;480;48.124;11.578;2023-04-03T04:26:34;3.80;99.90
983;DHT22;480;48.124;11.578;2023-04-03T04:29:01;3.70;99.90
983;DHT22;480;48.124;11.578;2023-04-03T04:31:28;3.80;99.90
983;DHT22;480;48.124;11.578;2023-04-03T04:33:55;3.80;99.90
983;DHT22;480;48.124;11.578;2023-04-03T04:36:22;3.80;99.90
983;DHT22;480;48.124;11.578;2023-04-03T04:38:49;3.60;99.90
983;DHT22;480;48.124;11.578;2023-04-03T04:41:19;3.60;99.90
983;DHT22;480;48.124;11.578;2023-04-03T04:43:47;3.50;99.90
983;DHT22;480;48.124;11.578;2023-04-03T04:46:15;3.50;99.90
983;DHT22;480;48.124;11.578;2023-04-03T04:48:43;3.60;99.90
983;DHT22;480;48.124;11.578;2023-04-03T04:51:10;3.60;99.90
983;DHT22;480;48.124;11.578;2023-04-03T04:53:38;3.70;99.90
983;DHT22;480;48.124;11.578;2023-04-03T04:56:05;3.70;99.90
983;DHT22;480;48.124;11.578;2023-04-03T04:58:33;3.60;99.90
983;DHT22;480;48.124;11.578;2023-04-03T05:01:01;3.50;99.90
983;DHT22;480;48.124;11.578;2023-04-03T05:03:28;3.40;99.90
983;DHT22;480;48.124;11.578;2023-04-03T05:05:55;3.40;99.90
983;DHT22;480;48.124;11.578;2023-04-03T05:08:22;3.50;99.90
983;DHT22;480;48.124;11.578;2023-04-03T05:10:49;3.50;99.90
983;DHT22;480;48.124;11.578;2023-04-03T05:13:16;3.40;99.90
983;DHT22;480;48.124;11.578;2023-04-03T05:15:45;3.50;99.90
983;DHT22;480;48.124;11.578;2023-04-03T05:18:12;3.50;99.90
983;DHT22;480;48.124;11.578;2023-04-03T05:20:39;3.50;99.90
983;DHT22;480;48.124;11.578;2023-04-03T05:23:06;3.60;99.90
983;DHT22;480;48.124;11.578;2023-04-03T05:25:34;3.60;99.90
983;DHT22;480;48.124;11.578;2023-04-03T05:28:01;3.50;99.90
983;DHT22;480;48.124;11.578;2023-04-03T05:30:28;3.50;99.90
983;DHT22;480;48.124;11.578;2023-04-03T05:32:58;3.40;99.90
983;DHT22;480;48.124;11.578;2023-04-03T05:35:26;3.40;99.90
983;DHT22;480;48.124;11.578;2023-04-03T05:37:53;3.50;99.90
983;DHT22;480;48.124;11.578;2023-04-03T05:40:22;3.40;99.90
983;DHT22;480;48.124;11.578;2023-04-03T05:42:49;3.60;99.90
983;DHT22;480;48.124;11.578;2023-04-03T05:45:16;3.70;99.90
983;DHT22;480;48.124;11.578;2023-04-03T05:47:43;3.70;99.90
983;DHT22;480;48.124;11.578;2023-04-03T05:50:12;3.70;99.90
983;DHT22;480;48.124;11.578;2023-04-03T05:52:42;3.60;99.90
983;DHT22;480;48.124;11.578;2023-04-03T05:55:10;3.60;99.90
983;DHT22;480;48.124;11.578;2023-04-03T05:57:37;3.70;99.90
983;DHT22;480;48.124;11.578;2023-04-03T06:00:05;3.70;99.90
983;DHT22;480;48.124;11.578;2023-04-03T06:02:32;3.50;99.90
983;DHT22;480;48.124;11.578;2023-04-03T06:05:00;3.50;99.90
983;DHT22;480;48.124;11.578;2023-04-03T06:07:28;3.50;99.90
983;DHT22;480;48.124;11.578;2023-04-03T06:09:56;3.50;99.90
983;DHT22;480;48.124;11.578;2023-04-03T06:12:24;3.70;99.90
983;DHT22;480;48.124;11.578;2023-04-03T06:14:51;3.60;99.90
983;DHT22;480;48.124;11.578;2023-04-03T06:17:19;3.60;99.90
983;DHT22;480;48.124;11.578;2023-04-03T06:19:46;3.50;99.90
983;DHT22;480;48.124;11.578;2023-04-03T06:22:13;3.50;99.90
983;DHT22;480;48.124;11.578;2023-04-03T06:24:43;3.60;99.90
983;DHT22;480;48.124;11.578;2023-04-03T06:27:10;3.60;99.90
983;DHT22;480;48.124;11.578;2023-04-03T06:29:38;3.60;99.90
983;DHT22;480;48.124;11.578;2023-04-03T06:32:05;3.70;99.90
983;DHT22;480;48.124;11.578;2023-04-03T06:34:33;3.90;99.90
983;DHT22;480;48.124;11.578;2023-04-03T06:37:01;4.00;99.90
983;DHT22;480;48.124;11.578;2023-04-03T06:39:30;4.10;99.90
983;DHT22;480;48.124;11.578;2023-04-03T06:41:59;4.30;99.90
983;DHT22;480;48.124;11.578;2023-04-03T06:44:26;4.10;99.90
983;DHT22;480;48.124;11.578;2023-04-03T06:46:53;4.20;99.90
983;DHT22;480;48.124;11.578;2023-04-03T06:49:20;4.30;99.90
983;DHT22;480;48.124;11.578;2023-04-03T06:51:47;4.20;99.90
983;DHT22;480;48.124;11.578;2023-04-03T06:54:15;4.20;99.90
983;DHT22;480;48.124;11.578;2023-04-03T06:56:42;4.10;99.90
983;DHT22;480;48.124;11.578;2023-04-03T06:59:12;4.20;99.90
983;DHT22;480;48.124;11.578;2023-04-03T07:01:40;4.10;99.90
983;DHT22;480;48.124;11.578;2023-04-03T07:04:08;4.20;99.90
983;DHT22;480;48.124;11.578;2023-04-03T07:06:35;4.00;99.90
983;DHT22;480;48.124;11.578;2023-04-03T07:09:02;4.10;99.90
983;DHT22;480;48.124;11.578;2023-04-03T07:11:29;4.00;99.90
983;DHT22;480;48.124;11.578;2023-04-03T07:13:57;4.10;99.90
983;DHT22;480;48.124;11.578;2023-04-03T07:16:26;4.20;99.90
983;DHT22;480;48.124;11.578;2023-04-03T07:18:53;4.00;99.90
983;DHT22;480;48.124;11.578;2023-04-03T07:21:21;4.20;99.90
983;DHT22;480;48.124;11.578;2023-04-03T07:23:51;4.20;99.90
983;DHT22;480;48.124;11.578;2023-04-03T07:26:20;4.10;99.90
983;DHT22;480;48.124;11.578;2023-04-03T07:28:49;4.30;99.90
983;DHT22;480;48.124;11.578;2023-04-03T07:31:29;4.40;99.90
983;DHT22;480;48.124;11.578;2023-04-03T07:33:59;4.30;99.90
983;DHT22;480;48.124;11.578;2023-04-03T07:36:27;4.40;99.90
983;DHT22;480;48.124;11.578;2023-04-03T07:38:56;4.40;99.90
983;DHT22;480;48.124;11.578;2023-04-03T07:41:24;4.30;99.90
983;DHT22;480;48.124;11.578;2023-04-03T07:43:53;4.50;99.90
983;DHT22;480;48.124;11.578;2023-04-03T07:46:22;4.60;99.90
983;DHT22;480;48.124;11.578;2023-04-03T07:48:52;4.80;99.90
983;DHT22;480;48.124;11.578;2023-04-03T07:51:19;4.70;99.90
983;DHT22;480;48.124;11.578;2023-04-03T07:53:48;4.70;99.90
983;DHT22;480;48.124;11.578;2023-04-03T07:56:17;4.90;99.90
983;DHT22;480;48.124;11.578;2023-04-03T07:58:46;4.70;99.90
983;DHT22;480;48.124;11.578;2023-04-03T08:01:16;4.60;99.90
983;DHT22;480;48.124;11.578;2023-04-03T08:03:54;4.40;99.90
983;DHT22;480;48.124;11.578;2023-04-03T08:06:22;4.30;99.90
983;DHT22;480;48.124;11.578;2023-04-03T08:08:50;4.30;99.90
983;DHT22;480;48.124;11.578;2023-04-03T08:11:19;4.30;99.90
983;DHT22;480;48.124;11.578;2023-04-03T08:13:49;4.30;99.90
983;DHT22;480;48.124;11.578;2023-04-03T08:16:30;4.60;99.90
983;DHT22;480;48.124;11.578;2023-04-03T08:19:13;4.40;99.90
983;DHT22;480;48.124;11.578;2023-04-03T08:21:46;4.40;99.90
983;DHT22;480;48.124;11.578;2023-04-03T08:24:13;4.50;99.90
983;DHT22;480;48.124;11.578;2023-04-03T08:26:40;4.60;99.90
983;DHT22;480;48.124;11.578;2023-04-03T08:29:08;4.60;99.90
983;DHT22;480;48.124;11.578;2023-04-03T08:31:35;4.70;99.90
983;DHT22;480;48.124;11.578;2023-04-03T08:34:02;4.60;99.90
983;DHT22;480;48.124;11.578;2023-04-03T08:36:31;4.80;99.90
983;DHT22;480;48.124;11.578;2023-04-03T08:38:58;4.70;99.90
983;DHT22;480;48.124;11.578;2023-04-03T08:41:37;4.70;99.90
983;DHT22;480;48.124;11.578;2023-04-03T08:44:25;4.60;99.90
983;DHT22;480;48.124;11.578;2023-04-03T08:49:31;4.60;99.90
983;DHT22;480;48.124;11.578;2023-04-03T08:52:03;4.70;99.90
983;DHT22;480;48.124;11.578;2023-04-03T08:54:40;4.80;99.90
983;DHT22;480;48.124;11.578;2023-04-03T08:57:13;4.70;99.90
983;DHT22;480;48.124;11.578;2023-04-03T09:00:15;4.70;99.90
983;DHT22;480;48.124;11.578;2023-04-03T09:02:52;4.60;99.90
983;DHT22;480;48.124;11.578;2023-04-03T09:05:35;4.80;99.90
983;DHT22;480;48.124;11.578;2023-04-03T09:08:14;5.10;99.90
983;DHT22;480;48.124;11.578;2023-04-03T09:10:47;5.30;99.90
983;DHT22;480;48.124;11.578;2023-04-03T09:13:26;5.10;99.90
983;DHT22;480;48.124;11.578;2023-04-03T09:21:15;5.20;99.90
983;DHT22;480;48.124;11.578;2023-04-03T09:23:47;5.10;99.90
983;DHT22;480;48.124;11.578;2023-04-03T09:26:18;5.20;99.90
983;DHT22;480;48.124;11.578;2023-04-03T09:28:48;5.40;99.90
983;DHT22;480;48.124;11.578;2023-04-03T09:31:20;5.40;99.90
983;DHT22;480;48.124;11.578;2023-04-03T09:33:53;5.20;99.90
983;DHT22;480;48.124;11.578;2023-04-03T09:36:41;5.20;99.90
983;DHT22;480;48.124;11.578;2023-04-03T09:39:14;5.10;99.90
983;DHT22;480;48.124;11.578;2023-04-03T09:41:44;4.80;99.90
983;DHT22;480;48.124;11.578;2023-04-03T09:44:33;5.10;99.90
983;DHT22;480;48.124;11.578;2023-04-03T09:47:24;5.00;99.90
983;DHT22;480;48.124;11.578;2023-04-03T09:50:10;5.00;99.90
983;DHT22;480;48.124;11.578;2023-04-03T09:55:16;5.10;99.90
983;DHT22;480;48.124;11.578;2023-04-03T09:57:52;5.20;99.90
983;DHT22;480;48.124;11.578;2023-04-03T10:00:39;5.30;99.90
983;DHT22;480;48.124;11.578;2023-04-03T10:03:24;5.40;99.90
983;DHT22;480;48.124;11.578;2023-04-03T10:05:52;5.60;99.90
983;DHT22;480;48.124;11.578;2023-04-03T10:08:23;5.70;99.90
983;DHT22;480;48.124;11.578;2023-04-03T10:13:54;5.50;99.90
983;DHT22;480;48.124;11.578;2023-04-03T10:16:26;5.50;99.90
983;DHT22;480;48.124;11.578;2023-04-03T10:19:09;5.50;99.90
983;DHT22;480;48.124;11.578;2023-04-03T10:21:44;5.60;99.90
983;DHT22;480;48.124;11.578;2023-04-03T10:24:17;5.40;99.90
983;DHT22;480;48.124;11.578;2023-04-03T10:27:05;5.60;99.90
983;DHT22;480;48.124;11.578;2023-04-03T10:38:16;5.00;99.90
983;DHT22;480;48.124;11.578;2023-04-03T10:41:05;4.90;99.90
983;DHT22;480;48.124;11.578;2023-04-03T10:43:40;4.70;99.90
983;DHT22;480;48.124;11.578;2023-04-03T10:46:13;4.40;99.90
983;DHT22;480;48.124;11.578;2023-04-03T10:48:53;4.40;99.90
983;DHT22;480;48.124;11.578;2023-04-03T10:51:31;4.20;99.90
983;DHT22;480;48.124;11.578;2023-04-03T10:54:05;4.30;99.90
983;DHT22;480;48.124;11.578;2023-04-03T10:56:38;4.30;99.90
983;DHT22;480;48.124;11.578;2023-04-03T10:59:15;4.30;99.90
983;DHT22;480;48.124;11.578;2023-04-03T11:01:46;4.40;99.90
983;DHT22;480;48.124;11.578;2023-04-03T11:04:18;4.40;99.90
983;DHT22;480;48.124;11.578;2023-04-03T11:06:49;4.30;99.90
983;DHT22;480;48.124;11.578;2023-04-03T11:09:22;4.10;99.90
983;DHT22;480;48.124;11.578;2023-04-03T11:11:55;4.00;99.90
983;DHT22;480;48.124;11.578;2023-04-03T11:14:26;4.00;99.90
983;DHT22;480;48.124;11.578;2023-04-03T11:17:04;4.20;99.90
983;DHT22;480;48.124;11.578;2023-04-03T11:19:39;4.20;99.90
983;DHT22;480;48.124;11.578;2023-04-03T11:22:14;4.40;99.90
983;DHT22;480;48.124;11.578;2023-04-03T11:24:43;4.50;99.90
983;DHT22;480;48.124;11.578;2023-04-03T11:27:17;4.70;99.90
983;DHT22;480;48.124;11.578;2023-04-03T11:29:50;4.90;99.90
983;DHT22;480;48.124;11.578;2023-04-03T11:32:35;5.00;99.90
983;DHT22;480;48.124;11.578;2023-04-03T11:35:09;5.10;99.90
983;DHT22;480;48.124;11.578;2023-04-03T11:37:39;5.20;99.90
983;DHT22;480;48.124;11.578;2023-04-03T11:40:17;5.30;99.90
983;DHT22;480;48.124;11.578;2023-04-03T11:42:47;5.50;99.90
983;DHT22;480;48.124;11.578;2023-04-03T11:45:27;5.30;99.90
983;DHT22;480;48.124;11.578;2023-04-03T11:47:59;5.20;99.90
983;DHT22;480;48.124;11.578;2023-04-03T11:50:46;5.20;99.90
983;DHT22;480;48.124;11.578;2023-04-03T11:53:32;5.40;99.90
983;DHT22;480;48.124;11.578;2023-04-03T11:56:02;5.30;99.90
983;DHT22;480;48.124;11.578;2023-04-03T11:58:31;5.50;99.90
983;DHT22;480;48.124;11.578;2023-04-03T12:01:04;5.60;99.90
983;DHT22;480;48.124;11.578;2023-04-03T12:04:06;5.60;99.90
983;DHT22;480;48.124;11.578;2023-04-03T12:06:52;5.50;99.90
983;DHT22;480;48.124;11.578;2023-04-03T12:09:31;5.30;99.90
983;DHT22;480;48.124;11.578;2023-04-03T12:12:00;5.30;99.90
983;DHT22;480;48.124;11.578;2023-04-03T12:14:28;5.40;99.90
983;DHT22;480;48.124;11.578;2023-04-03T12:16:57;5.40;99.90
983;DHT22;480;48.124;11.578;2023-04-03T12:19:34;5.60;99.90
983;DHT22;480;48.124;11.578;2023-04-03T12:22:25;5.60;99.90
983;DHT22;480;48.124;11.578;2023-04-03T12:24:52;5.60;99.90
983;DHT22;480;48.124;11.578;2023-04-03T12:27:38;5.70;99.90
983;DHT22;480;48.124;11.578;2023-04-03T12:30:24;5.80;99.90
983;DHT22;480;48.124;11.578;2023-04-03T12:33:04;5.80;99.90
983;DHT22;480;48.124;11.578;2023-04-03T12:35:44;6.00;99.90
983;DHT22;480;48.124;11.578;2023-04-03T12:38:52;6.00;99.90
983;DHT22;480;48.124;11.578;2023-04-03T12:41:31;6.00;99.90
983;DHT22;480;48.124;11.578;2023-04-03T12:44:17;6.00;99.90
983;DHT22;480;48.124;11.578;2023-04-03T12:46:49;5.80;99.90
983;DHT22;480;48.124;11.578;2023-04-03T12:49:33;6.00;99.90
983;DHT22;480;48.124;11.578;2023-04-03T12:52:21;6.20;99.90
983;DHT22;480;48.124;11.578;2023-04-03T12:54:52;6.10;99.90
983;DHT22;480;48.124;11.578;2023-04-03T12:57:21;6.00;99.90
983;DHT22;480;48.124;11.578;2023-04-03T12:59:51;6.00;99.90
983;DHT22;480;48.124;11.578;2023-04-03T13:02:22;5.60;99.90
983;DHT22;480;48.124;11.578;2023-04-03T13:04:50;5.70;99.90
983;DHT22;480;48.124;11.578;2023-04-03T13:07:24;5.90;99.90
983;DHT22;480;48.124;11.578;2023-04-03T13:10:13;6.00;99.90
983;DHT22;480;48.124;11.578;2023-04-03T13:12:49;6.10;99.90
983;DHT22;480;48.124;11.578;2023-04-03T13:15:19;6.10;99.90
983;DHT22;480;48.124;11.578;2023-04-03T13:17:46;6.10;99.90
983;DHT22;480;48.124;11.578;2023-04-03T13:20:20;6.20;99.90
983;DHT22;480;48.124;11.578;2023-04-03T13:22:51;6.40;99.90
983;DHT22;480;48.124;11.578;2023-04-03T13:25:21;6.40;99.90
983;DHT22;480;48.124;11.578;2023-04-03T13:27:49;6.40;99.90
983;DHT22;480;48.124;11.578;2023-04-03T13:30:23;6.60;99.90
983;DHT22;480;48.124;11.578;2023-04-03T13:32:51;6.80;99.90
983;DHT22;480;48.124;11.578;2023-04-03T13:35:34;7.10;99.90
983;DHT22;480;48.124;11.578;2023-04-03T13:38:07;7.80;99.90
983;DHT22;480;48.124;11.578;2023-04-03T13:40:51;7.20;99.90
983;DHT22;480;48.124;11.578;2023-04-03T13:43:20;6.60;99.90
983;DHT22;480;48.124;11.578;2023-04-03T13:46:01;6.70;99.90
983;DHT22;480;48.124;11.578;2023-04-03T13:48:37;6.60;99.90
983;DHT22;480;48.124;11.578;2023-04-03T13:51:24;6.50;99.90
983;DHT22;480;48.124;11.578;2023-04-03T13:54:23;6.40;99.90
983;DHT22;480;48.124;11.578;2023-04-03T13:56:55;6.50;99.90
983;DHT22;480;48.124;11.578;2023-04-03T13:59:24;6.40;99.90
983;DHT22;480;48.124;11.578;2023-04-03T14:01:56;6.30;99.90
983;DHT22;480;48.124;11.578;2023-04-03T14:04:46;6.20;99.90
983;DHT22;480;48.124;11.578;2023-04-03T14:07:15;6.20;99.90
983;DHT22;480;48.124;11.578;2023-04-03T14:09:43;6.30;99.90
983;DHT22;480;48.124;11.578;2023-04-03T14:12:18;6.50;99.90
983;DHT22;480;48.124;11.578;2023-04-03T14:14:47;6.70;99.90
983;DHT22;480;48.124;11.578;2023-04-03T14:17:17;6.90;99.90
983;DHT22;480;48.124;11.578;2023-04-03T14:19:46;6.90;99.90
983;DHT22;480;48.124;11.578;2023-04-03T14:22:17;7.20;99.90
983;DHT22;480;48.124;11.578;2023-04-03T14:24:45;7.40;99.90
983;DHT22;480;48.124;11.578;2023-04-03T14:27:18;7.50;99.90
983;DHT22;480;48.124;11.578;2023-04-03T14:29:46;7.80;99.90
983;DHT22;480;48.124;11.578;2023-04-03T14:32:15;8.30;99.90
983;DHT22;480;48.124;11.578;2023-04-03T14:34:43;8.40;99.90
983;DHT22;480;48.124;11.578;2023-04-03T14:37:12;8.50;99.90
983;DHT22;480;48.124;11.578;2023-04-03T14:39:40;8.10;99.90
983;DHT22;480;48.124;11.578;2023-04-03T14:42:12;7.80;99.90
983;DHT22;480;48.124;11.578;2023-04-03T14:44:41;7.40;98.40
983;DHT22;480;48.124;11.578;2023-04-03T14:47:11;7.40;99.40
983;DHT22;480;48.124;11.578;2023-04-03T14:49:39;7.40;99.90
983;DHT22;480;48.124;11.578;2023-04-03T14:52:09;7.40;99.90
983;DHT22;480;48.124;11.578;2023-04-03T14:54:43;7.40;99.90
983;DHT22;480;48.124;11.578;2023-04-03T14:57:12;7.10;99.90
983;DHT22;480;48.124;11.578;2023-04-03T14:59:41;6.90;99.90
983;DHT22;480;48.124;11.578;2023-04-03T15:02:25;6.70;99.80
983;DHT22;480;48.124;11.578;2023-04-03T15:04:53;6.30;99.90
983;DHT22;480;48.124;11.578;2023-04-03T15:07:25;6.10;99.90
983;DHT22;480;48.124;11.578;2023-04-03T15:09:53;6.30;99.90
983;DHT22;480;48.124;11.578;2023-04-03T15:12:22;6.70;99.90
983;DHT22;480;48.124;11.578;2023-04-03T15:14:50;6.70;99.90
983;DHT22;480;48.124;11.578;2023-04-03T15:17:21;6.70;99.90
983;DHT22;480;48.124;11.578;2023-04-03T15:19:49;6.70;99.90
983;DHT22;480;48.124;11.578;2023-04-03T15:22:18;6.60;99.10
983;DHT22;480;48.124;11.578;2023-04-03T15:24:45;6.50;98.40
983;DHT22;480;48.124;11.578;2023-04-03T15:27:13;6.40;97.80
983;DHT22;480;48.124;11.578;2023-04-03T15:29:42;6.50;98.90
983;DHT22;480;48.124;11.578;2023-04-03T15:32:11;6.40;99.10
983;DHT22;480;48.124;11.578;2023-04-03T15:34:40;6.50;98.70
983;DHT22;480;48.124;11.578;2023-04-03T15:37:10;6.30;99.20
983;DHT22;480;48.124;11.578;2023-04-03T15:39:37;6.40;99.20
983;DHT22;480;48.124;11.578;2023-04-03T15:42:04;6.40;98.90
983;DHT22;480;48.124;11.578;2023-04-03T15:44:33;6.30;98.60
983;DHT22;480;48.124;11.578;2023-04-03T15:47:01;6.20;99.00
983;DHT22;480;48.124;11.578;2023-04-03T15:49:31;6.20;98.80
983;DHT22;480;48.124;11.578;2023-04-03T15:51:59;6.10;97.50
983;DHT22;480;48.124;11.578;2023-04-03T15:54:26;6.00;96.90
983;DHT22;480;48.124;11.578;2023-04-03T15:56:55;6.10;97.40
983;DHT22;480;48.124;11.578;2023-04-03T15:59:22;6.10;97.30
983;DHT22;480;48.124;11.578;2023-04-03T16:01:50;6.00;96.20
983;DHT22;480;48.124;11.578;2023-04-03T16:04:18;6.00;96.00
983;DHT22;480;48.124;11.578;2023-04-03T16:06:48;6.00;96.20
983;DHT22;480;48.124;11.578;2023-04-03T16:09:15;6.10;96.90
983;DHT22;480;48.124;11.578;2023-04-03T16:11:42;6.00;96.40
983;DHT22;480;48.124;11.578;2023-04-03T16:14:10;6.10;97.00
983;DHT22;480;48.124;11.578;2023-04-03T16:16:37;6.00;96.60
983;DHT22;480;48.124;11.578;2023-04-03T16:19:05;5.80;97.60
983;DHT22;480;48.124;11.578;2023-04-03T16:21:33;5.70;98.40
983;DHT22;480;48.124;11.578;2023-04-03T16:24:05;5.50;98.30
983;DHT22;480;48.124;11.578;2023-04-03T16:26:32;5.40;98.50
983;DHT22;480;48.124;11.578;2023-04-03T16:28:59;5.40;98.80
983;DHT22;480;48.124;11.578;2023-04-03T16:31:27;5.50;98.70
983;DHT22;480;48.124;11.578;2023-04-03T16:33:55;5.60;98.30
983;DHT22;480;48.124;11.578;2023-04-03T16:36:22;5.50;99.20
983;DHT22;480;48.124;11.578;2023-04-03T16:38:50;5.50;98.10
983;DHT22;480;48.124;11.578;2023-04-03T16:41:19;5.50;97.90
983;DHT22;480;48.124;11.578;2023-04-03T16:43:46;5.40;97.60
983;DHT22;480;48.124;11.578;2023-04-03T16:46:13;5.50;98.00
983;DHT22;480;48.124;11.578;2023-04-03T16:48:40;5.60;97.80
983;DHT22;480;48.124;11.578;2023-04-03T16:51:07;5.40;97.80
983;DHT22;480;48.124;11.578;2023-04-03T16:53:34;5.60;98.20
983;DHT22;480;48.124;11.578;2023-04-03T16:56:02;5.70;98.30
983;DHT22;480;48.124;11.578;2023-04-03T16:58:31;5.60;97.10
983;DHT22;480;48.124;11.578;2023-04-03T17:00:58;5.60;96.40
983;DHT22;480;48.124;11.578;2023-04-03T17:03:25;5.60;97.00
983;DHT22;480;48.124;11.578;2023-04-03T17:05:53;5.50;97.80
983;DHT22;480;48.124;11.578;2023-04-03T17:08:20;5.40;98.90
983;DHT22;480;48.124;11.578;2023-04-03T17:10:48;5.40;98.70
983;DHT22;480;48.124;11.578;2023-04-03T17:13:19;5.30;99.00
983;DHT22;480;48.124;11.578;2023-04-03T17:15:50;5.20;99.70
983;DHT22;480;48.124;11.578;2023-04-03T17:18:18;5.20;99.70
983;DHT22;480;48.124;11.578;2023-04-03T17:20:46;5.20;99.80